Relevés horaires Kleine Brogel (Belgique)


Relevés horaires à Kleine Brogel - Jeudi 18 Avr. 2019
Heure UTC1 Température [°C] Vent [km/h] Hum. [%] Pres.4 [hPa] Visi. [Km] Nébu. [octa] Préc.5 [mm] Cond.
2m. Res. Ros. Dir.2 Vit. Moy. Raf.3
20:00 16.0 16.0 2.2 ENE 5.6 -- 11.1 39 1024.7(1.3/3h) 20 -- -- --
19:00 16.2 16.2 3.3 ENE 3.7 -- 9.3 42 1024.4(0.9/3h) 20 -- -- --
18:00 20.6 20.6 2.4 E 5.6 -- 20.4 30 1023.6(0.1/3h) 20 -- -- --
17:00 21.7 21.7 1.5 E 5.6 -- 16.7 26 1023.2(-0.3/3h) 20 -- -- --
16:00 22.1 22.1 1.2 E 9.3 -- 16.7 25 1023.2(-0.6/3h) 20 -- -- --
15:00 22.3 22.3 0.9 E 7.4 -- 20.4 24 1023.3(-0.8/3h) 20 1/8 -- --
14:00 21.9 21.9 2.4 E 9.3 -- 16.7 28 1023.7(-0.9/3h) 20 1/8 -- --
13:00 21.2 21.2 3.2 E 11.1 -- 20.4 31 1023.8(-1.0/3h) 20 0/8 -- --
12:00 20.9 20.9 3.8 E 11.1 -- 20.4 32 1024.2(-0.7/3h) 20 0/8 -- --
12:00 20.9 20.9 3.8 E 11.1 -- 20.4 32 1024.2(-0.7/3h) 20 0/8 -- --
11:00 19.7 19.7 4.3 E 9.3 -- 18.5 36 1024.7(-0.3/3h) 20 0/8 -- --
11:00 19.7 19.7 4.3 E 9.3 -- 18.5 36 1024.7(-0.3/3h) 20 0/8 -- --
10:00 18.9 18.9 4.1 E 11.1 -- 16.7 38 1025(0.4/3h) 20 0/8 -- --
10:00 18.9 18.9 4.1 E 11.1 -- 16.7 38 1025(0.4/3h) 20 0/8 -- --
09:00 17.4 17.4 4.7 E 9.3 -- 14.8 43 1025.2(0.8/3h) 20 0/8 -- --
09:00 17.4 17.4 4.7 E 9.3 -- 14.8 43 1025.2(0.8/3h) 20 0/8 -- --
08:00 15.5 15.5 4.0 E 7.4 -- 14.8 46 1025.2(1.3/3h) 20 1/8 -- --
07:00 13.3 13.3 3.2 E 5.6 -- 11.1 50 1024.7(1.2/3h) 20 6/8 -- --
06:00 11.8 11.6 3.2 E 5.6 -- 9.3 56 1024.5(0.8/3h) 20 6/8 -- --
06:00 11.8 11.6 3.2 E 5.6 -- 9.3 56 1024.5(0.8/3h) 20 6/8 -- --
05:00 9.8 9.8 3.3 NNO 1.9 -- 7.4 64 1024(0.3/3h) 20 -- -- --
04:00 10.1 10.1 4.1 ENE 3.7 -- 7.4 66 1023.5(0.0/3h) 19 -- -- --
03:00 10.3 10.3 5.2 ENE 3.7 -- 7.4 71 1023.7(0.0/3h) 20 -- -- --
02:00 9.4 9.4 6.0 NE 3.7 -- 3.7 79 1023.6(0.0/3h) 15 -- -- --

1 Coordinated Universal Time. Actuellement il est 22:00 locale et 20:00 UTC.

2 Le vent souffle depuis la direction indiquée vers la direction oposée.

3 Les rafales max. sont disponible 40 min après l'heure du relevé.

4 Pour les stations d'altitude (plus de 600m) le géopotentiel du niveau le plus proche de la pression obligatoire est indiqué.

5 Les stations disposant d'un diffuseur peuvent indiquer "trace". Cela signifie que des précipitations ont touchés le sol mais que la quantité est inférieure à 0.1 mm.

Récapitulatif de la journée
Température [°C] Vent [km/h] Ensoleillement4 [h] Precipitations totale5 [mm] Pression [Hpa]
Min1 Max.2 Moy.3 Max. Min Max.
7.5 22.7 0 20.4 0 h 0 min 0 1023.2 1025.2

1 Température minimale relevée entre 18:00 UTC la veille et 18:00 UTC le jour donné.

2 Température maximale relevée entre 06:00 UTC le jour donné et 06:00 UTC le lendemain.

3 Vent moyen de la journée basé sur les relevés horaires.

4 Ensoleillement en heures relevé entre 06:00 UTC la veille et 06:00 UTC le jour donné.

5 Précipitations totales tombées entre 06:00 UTC la jour donné et 06:00 UTC le lendemain.

Graphiques horaires